sensor_id;sensor_type;location;lat;lon;timestamp;temperature;humidity
1367;DHT22;16877;48.810;9.282;2022-08-19T00:00:35;30.70;50.80
1367;DHT22;16877;48.810;9.282;2022-08-19T00:03:01;30.70;50.90
1367;DHT22;16877;48.810;9.282;2022-08-19T00:05:28;30.70;51.00
1367;DHT22;16877;48.810;9.282;2022-08-19T00:07:55;30.60;51.10
1367;DHT22;16877;48.810;9.282;2022-08-19T00:10:22;30.60;51.20
1367;DHT22;16877;48.810;9.282;2022-08-19T00:12:51;30.60;51.20
1367;DHT22;16877;48.810;9.282;2022-08-19T00:15:20;30.60;51.20
1367;DHT22;16877;48.810;9.282;2022-08-19T00:17:48;30.60;51.30
1367;DHT22;16877;48.810;9.282;2022-08-19T00:20:17;30.60;51.30
1367;DHT22;16877;48.810;9.282;2022-08-19T00:22:46;30.60;51.30
1367;DHT22;16877;48.810;9.282;2022-08-19T00:25:13;30.50;51.30
1367;DHT22;16877;48.810;9.282;2022-08-19T00:27:40;30.50;51.50
1367;DHT22;16877;48.810;9.282;2022-08-19T00:30:09;30.40;51.50
1367;DHT22;16877;48.810;9.282;2022-08-19T00:32:36;30.40;51.60
1367;DHT22;16877;48.810;9.282;2022-08-19T00:35:05;30.40;51.70
1367;DHT22;16877;48.810;9.282;2022-08-19T00:37:32;30.40;51.70
1367;DHT22;16877;48.810;9.282;2022-08-19T00:40:00;30.40;51.70
1367;DHT22;16877;48.810;9.282;2022-08-19T00:42:28;30.30;51.60
1367;DHT22;16877;48.810;9.282;2022-08-19T00:44:54;30.30;51.70
1367;DHT22;16877;48.810;9.282;2022-08-19T00:47:22;30.30;51.70
1367;DHT22;16877;48.810;9.282;2022-08-19T00:49:52;30.30;51.70
1367;DHT22;16877;48.810;9.282;2022-08-19T00:52:22;30.30;51.80
1367;DHT22;16877;48.810;9.282;2022-08-19T00:54:50;30.30;51.60
1367;DHT22;16877;48.810;9.282;2022-08-19T00:57:23;30.40;51.70
1367;DHT22;16877;48.810;9.282;2022-08-19T00:59:54;30.40;51.70
1367;DHT22;16877;48.810;9.282;2022-08-19T01:02:23;30.30;51.70
1367;DHT22;16877;48.810;9.282;2022-08-19T01:04:50;30.30;51.80
1367;DHT22;16877;48.810;9.282;2022-08-19T01:07:17;30.30;51.80
1367;DHT22;16877;48.810;9.282;2022-08-19T01:09:44;30.30;51.70
1367;DHT22;16877;48.810;9.282;2022-08-19T01:12:11;30.30;51.80
1367;DHT22;16877;48.810;9.282;2022-08-19T01:14:39;30.30;51.80
1367;DHT22;16877;48.810;9.282;2022-08-19T01:17:06;30.30;51.90
1367;DHT22;16877;48.810;9.282;2022-08-19T01:19:37;30.20;51.90
1367;DHT22;16877;48.810;9.282;2022-08-19T01:22:10;30.20;51.90
1367;DHT22;16877;48.810;9.282;2022-08-19T01:24:40;30.20;52.00
1367;DHT22;16877;48.810;9.282;2022-08-19T01:27:08;30.20;52.00
1367;DHT22;16877;48.810;9.282;2022-08-19T01:29:37;30.20;52.00
1367;DHT22;16877;48.810;9.282;2022-08-19T01:32:04;30.10;52.40
1367;DHT22;16877;48.810;9.282;2022-08-19T01:34:31;30.10;52.10
1367;DHT22;16877;48.810;9.282;2022-08-19T01:36:59;30.10;52.10
1367;DHT22;16877;48.810;9.282;2022-08-19T01:39:27;30.10;52.20
1367;DHT22;16877;48.810;9.282;2022-08-19T01:41:55;30.10;52.30
1367;DHT22;16877;48.810;9.282;2022-08-19T01:44:21;30.10;52.30
1367;DHT22;16877;48.810;9.282;2022-08-19T01:46:50;30.10;52.40
1367;DHT22;16877;48.810;9.282;2022-08-19T01:49:20;30.00;52.40
1367;DHT22;16877;48.810;9.282;2022-08-19T01:51:47;30.00;52.40
1367;DHT22;16877;48.810;9.282;2022-08-19T01:54:15;30.00;52.50
1367;DHT22;16877;48.810;9.282;2022-08-19T01:56:42;29.90;52.50
1367;DHT22;16877;48.810;9.282;2022-08-19T01:59:13;29.90;52.60
1367;DHT22;16877;48.810;9.282;2022-08-19T02:01:41;29.90;52.60
1367;DHT22;16877;48.810;9.282;2022-08-19T02:04:08;30.00;52.50
1367;DHT22;16877;48.810;9.282;2022-08-19T02:06:35;30.00;52.60
1367;DHT22;16877;48.810;9.282;2022-08-19T02:09:03;30.00;52.60
1367;DHT22;16877;48.810;9.282;2022-08-19T02:11:32;30.00;52.60
1367;DHT22;16877;48.810;9.282;2022-08-19T02:14:00;30.00;52.60
1367;DHT22;16877;48.810;9.282;2022-08-19T02:16:29;29.90;52.60
1367;DHT22;16877;48.810;9.282;2022-08-19T02:18:57;29.90;52.70
1367;DHT22;16877;48.810;9.282;2022-08-19T02:21:26;29.90;52.70
1367;DHT22;16877;48.810;9.282;2022-08-19T02:23:53;29.90;52.70
1367;DHT22;16877;48.810;9.282;2022-08-19T02:26:20;29.90;52.70
1367;DHT22;16877;48.810;9.282;2022-08-19T02:28:48;29.90;52.80
1367;DHT22;16877;48.810;9.282;2022-08-19T02:31:16;29.90;52.90
1367;DHT22;16877;48.810;9.282;2022-08-19T02:33:45;29.80;52.90
1367;DHT22;16877;48.810;9.282;2022-08-19T02:36:13;29.90;52.80
1367;DHT22;16877;48.810;9.282;2022-08-19T02:38:42;29.80;52.90
1367;DHT22;16877;48.810;9.282;2022-08-19T02:41:16;29.80;53.00
1367;DHT22;16877;48.810;9.282;2022-08-19T02:43:43;29.80;53.00
1367;DHT22;16877;48.810;9.282;2022-08-19T02:46:16;29.80;53.10
1367;DHT22;16877;48.810;9.282;2022-08-19T02:48:48;29.80;53.20
1367;DHT22;16877;48.810;9.282;2022-08-19T02:51:19;29.80;53.20
1367;DHT22;16877;48.810;9.282;2022-08-19T02:53:46;29.70;53.20
1367;DHT22;16877;48.810;9.282;2022-08-19T02:56:13;29.70;53.30
1367;DHT22;16877;48.810;9.282;2022-08-19T02:58:40;29.70;53.40
1367;DHT22;16877;48.810;9.282;2022-08-19T03:01:09;29.70;53.40
1367;DHT22;16877;48.810;9.282;2022-08-19T03:03:36;29.70;53.30
1367;DHT22;16877;48.810;9.282;2022-08-19T03:06:08;29.70;53.40
1367;DHT22;16877;48.810;9.282;2022-08-19T03:08:35;29.70;53.40
1367;DHT22;16877;48.810;9.282;2022-08-19T03:11:03;29.70;53.40
1367;DHT22;16877;48.810;9.282;2022-08-19T03:13:29;29.60;53.60
1367;DHT22;16877;48.810;9.282;2022-08-19T03:15:56;29.60;53.60
1367;DHT22;16877;48.810;9.282;2022-08-19T03:18:23;29.60;53.50
1367;DHT22;16877;48.810;9.282;2022-08-19T03:20:52;29.60;53.60
1367;DHT22;16877;48.810;9.282;2022-08-19T03:23:21;29.60;53.60
1367;DHT22;16877;48.810;9.282;2022-08-19T03:25:49;29.60;53.60
1367;DHT22;16877;48.810;9.282;2022-08-19T03:28:17;29.60;53.60
1367;DHT22;16877;48.810;9.282;2022-08-19T03:30:55;29.50;53.60
1367;DHT22;16877;48.810;9.282;2022-08-19T03:33:23;29.50;53.70
1367;DHT22;16877;48.810;9.282;2022-08-19T03:36:00;29.50;53.70
1367;DHT22;16877;48.810;9.282;2022-08-19T03:38:29;29.50;53.70
1367;DHT22;16877;48.810;9.282;2022-08-19T03:40:56;29.50;53.80
1367;DHT22;16877;48.810;9.282;2022-08-19T03:43:23;29.50;53.80
1367;DHT22;16877;48.810;9.282;2022-08-19T03:45:59;29.50;53.80
1367;DHT22;16877;48.810;9.282;2022-08-19T03:48:26;29.50;53.80
1367;DHT22;16877;48.810;9.282;2022-08-19T03:50:53;29.50;53.80
1367;DHT22;16877;48.810;9.282;2022-08-19T03:53:20;29.50;53.70
1367;DHT22;16877;48.810;9.282;2022-08-19T03:55:47;29.50;53.70
1367;DHT22;16877;48.810;9.282;2022-08-19T03:58:14;29.50;53.80
1367;DHT22;16877;48.810;9.282;2022-08-19T04:00:42;29.50;53.60
1367;DHT22;16877;48.810;9.282;2022-08-19T04:03:09;29.50;53.70
1367;DHT22;16877;48.810;9.282;2022-08-19T04:05:35;29.50;53.70
1367;DHT22;16877;48.810;9.282;2022-08-19T04:08:03;29.50;53.60
1367;DHT22;16877;48.810;9.282;2022-08-19T04:10:31;29.60;53.60
1367;DHT22;16877;48.810;9.282;2022-08-19T04:13:02;29.60;53.60
1367;DHT22;16877;48.810;9.282;2022-08-19T04:15:30;29.60;53.60
1367;DHT22;16877;48.810;9.282;2022-08-19T04:18:01;29.60;53.60
1367;DHT22;16877;48.810;9.282;2022-08-19T04:20:27;29.60;53.50
1367;DHT22;16877;48.810;9.282;2022-08-19T04:22:54;29.50;53.60
1367;DHT22;16877;48.810;9.282;2022-08-19T04:25:22;29.50;53.60
1367;DHT22;16877;48.810;9.282;2022-08-19T04:27:49;29.50;53.70
1367;DHT22;16877;48.810;9.282;2022-08-19T04:30:17;29.50;53.70
1367;DHT22;16877;48.810;9.282;2022-08-19T04:32:44;29.50;53.70
1367;DHT22;16877;48.810;9.282;2022-08-19T04:35:11;29.50;53.60
1367;DHT22;16877;48.810;9.282;2022-08-19T04:37:38;29.50;53.60
1367;DHT22;16877;48.810;9.282;2022-08-19T04:40:06;29.50;53.70
1367;DHT22;16877;48.810;9.282;2022-08-19T04:42:50;29.50;53.80
1367;DHT22;16877;48.810;9.282;2022-08-19T04:45:18;29.50;53.80
1367;DHT22;16877;48.810;9.282;2022-08-19T04:47:45;29.50;53.70
1367;DHT22;16877;48.810;9.282;2022-08-19T04:50:12;29.60;53.60
1367;DHT22;16877;48.810;9.282;2022-08-19T04:52:39;29.70;53.60
1367;DHT22;16877;48.810;9.282;2022-08-19T04:55:09;29.80;53.50
1367;DHT22;16877;48.810;9.282;2022-08-19T04:57:35;29.80;53.40
1367;DHT22;16877;48.810;9.282;2022-08-19T05:00:06;29.90;53.30
1367;DHT22;16877;48.810;9.282;2022-08-19T05:02:35;30.00;53.20
1367;DHT22;16877;48.810;9.282;2022-08-19T05:05:02;30.00;53.10
1367;DHT22;16877;48.810;9.282;2022-08-19T05:07:29;30.10;53.10
1367;DHT22;16877;48.810;9.282;2022-08-19T05:09:56;30.10;53.00
1367;DHT22;16877;48.810;9.282;2022-08-19T05:12:23;30.10;52.90
1367;DHT22;16877;48.810;9.282;2022-08-19T05:14:49;30.10;52.90
1367;DHT22;16877;48.810;9.282;2022-08-19T05:17:17;30.20;52.90
1367;DHT22;16877;48.810;9.282;2022-08-19T05:19:45;30.20;52.80
1367;DHT22;16877;48.810;9.282;2022-08-19T05:22:29;30.20;52.80
1367;DHT22;16877;48.810;9.282;2022-08-19T05:25:00;30.20;52.80
1367;DHT22;16877;48.810;9.282;2022-08-19T05:27:27;30.20;52.80
1367;DHT22;16877;48.810;9.282;2022-08-19T05:29:54;30.20;52.80
1367;DHT22;16877;48.810;9.282;2022-08-19T05:32:20;30.20;52.70
1367;DHT22;16877;48.810;9.282;2022-08-19T05:34:50;30.20;52.70
1367;DHT22;16877;48.810;9.282;2022-08-19T05:37:16;30.30;52.70
1367;DHT22;16877;48.810;9.282;2022-08-19T05:39:43;30.20;52.60
1367;DHT22;16877;48.810;9.282;2022-08-19T05:42:11;30.20;52.60
1367;DHT22;16877;48.810;9.282;2022-08-19T05:44:40;30.20;52.70
1367;DHT22;16877;48.810;9.282;2022-08-19T05:47:09;30.20;52.70
1367;DHT22;16877;48.810;9.282;2022-08-19T05:49:36;30.30;53.30
1367;DHT22;16877;48.810;9.282;2022-08-19T05:52:06;30.30;52.70
1367;DHT22;16877;48.810;9.282;2022-08-19T05:54:34;30.30;52.70
1367;DHT22;16877;48.810;9.282;2022-08-19T05:57:03;30.30;52.60
1367;DHT22;16877;48.810;9.282;2022-08-19T05:59:30;30.30;53.30
1367;DHT22;16877;48.810;9.282;2022-08-19T06:01:57;30.30;52.80
1367;DHT22;16877;48.810;9.282;2022-08-19T06:04:24;30.30;52.80
1367;DHT22;16877;48.810;9.282;2022-08-19T06:06:53;30.30;52.70
1367;DHT22;16877;48.810;9.282;2022-08-19T06:09:22;30.30;52.70
1367;DHT22;16877;48.810;9.282;2022-08-19T06:11:50;30.30;52.70
1367;DHT22;16877;48.810;9.282;2022-08-19T06:14:20;30.30;52.70
1367;DHT22;16877;48.810;9.282;2022-08-19T06:16:48;30.30;52.70
1367;DHT22;16877;48.810;9.282;2022-08-19T06:19:18;30.30;52.70
1367;DHT22;16877;48.810;9.282;2022-08-19T06:21:47;30.30;52.80
1367;DHT22;16877;48.810;9.282;2022-08-19T06:24:16;30.40;52.90
1367;DHT22;16877;48.810;9.282;2022-08-19T06:26:47;30.30;53.00
1367;DHT22;16877;48.810;9.282;2022-08-19T06:29:16;30.30;53.20
1367;DHT22;16877;48.810;9.282;2022-08-19T06:31:44;30.30;53.40
1367;DHT22;16877;48.810;9.282;2022-08-19T06:34:12;30.40;53.60
1367;DHT22;16877;48.810;9.282;2022-08-19T06:36:41;30.40;53.60
1367;DHT22;16877;48.810;9.282;2022-08-19T06:39:12;30.40;53.70
1367;DHT22;16877;48.810;9.282;2022-08-19T06:41:41;30.40;53.70
1367;DHT22;16877;48.810;9.282;2022-08-19T06:44:10;30.50;53.70
1367;DHT22;16877;48.810;9.282;2022-08-19T06:46:37;30.50;53.50
1367;DHT22;16877;48.810;9.282;2022-08-19T06:49:05;30.50;53.50
1367;DHT22;16877;48.810;9.282;2022-08-19T06:51:34;30.50;53.40
1367;DHT22;16877;48.810;9.282;2022-08-19T06:54:01;30.40;53.40
1367;DHT22;16877;48.810;9.282;2022-08-19T06:56:30;30.50;53.70
1367;DHT22;16877;48.810;9.282;2022-08-19T06:58:59;30.50;53.80
1367;DHT22;16877;48.810;9.282;2022-08-19T07:01:27;30.50;53.50
1367;DHT22;16877;48.810;9.282;2022-08-19T07:03:54;30.50;53.60
1367;DHT22;16877;48.810;9.282;2022-08-19T07:06:21;30.50;53.70
1367;DHT22;16877;48.810;9.282;2022-08-19T07:08:48;30.50;53.60
1367;DHT22;16877;48.810;9.282;2022-08-19T07:11:17;30.50;53.70
1367;DHT22;16877;48.810;9.282;2022-08-19T07:13:45;30.60;53.60
1367;DHT22;16877;48.810;9.282;2022-08-19T07:16:14;30.60;53.50
1367;DHT22;16877;48.810;9.282;2022-08-19T07:18:42;30.60;53.30
1367;DHT22;16877;48.810;9.282;2022-08-19T07:21:11;30.50;53.30
1367;DHT22;16877;48.810;9.282;2022-08-19T07:23:39;30.50;53.30
1367;DHT22;16877;48.810;9.282;2022-08-19T07:26:07;30.50;54.00
1367;DHT22;16877;48.810;9.282;2022-08-19T07:28:35;30.50;53.30
1367;DHT22;16877;48.810;9.282;2022-08-19T07:31:05;30.60;53.50
1367;DHT22;16877;48.810;9.282;2022-08-19T07:33:31;30.60;53.50
1367;DHT22;16877;48.810;9.282;2022-08-19T07:36:03;30.60;53.40
1367;DHT22;16877;48.810;9.282;2022-08-19T07:38:31;30.60;53.50
1367;DHT22;16877;48.810;9.282;2022-08-19T07:40:58;30.60;53.40
1367;DHT22;16877;48.810;9.282;2022-08-19T07:43:24;30.60;53.80
1367;DHT22;16877;48.810;9.282;2022-08-19T07:45:52;30.60;53.90
1367;DHT22;16877;48.810;9.282;2022-08-19T07:48:21;30.60;53.80
1367;DHT22;16877;48.810;9.282;2022-08-19T07:50:51;30.60;53.60
1367;DHT22;16877;48.810;9.282;2022-08-19T07:53:19;30.60;53.80
1367;DHT22;16877;48.810;9.282;2022-08-19T07:55:45;30.60;53.80
1367;DHT22;16877;48.810;9.282;2022-08-19T07:58:14;30.60;53.80
1367;DHT22;16877;48.810;9.282;2022-08-19T08:00:42;30.50;53.80
1367;DHT22;16877;48.810;9.282;2022-08-19T08:03:09;30.60;53.80
1367;DHT22;16877;48.810;9.282;2022-08-19T08:05:36;30.60;53.70
1367;DHT22;16877;48.810;9.282;2022-08-19T08:08:18;30.50;53.70
1367;DHT22;16877;48.810;9.282;2022-08-19T08:11:04;30.50;53.70
1367;DHT22;16877;48.810;9.282;2022-08-19T08:13:31;30.50;53.70
1367;DHT22;16877;48.810;9.282;2022-08-19T08:16:01;30.50;53.60
1367;DHT22;16877;48.810;9.282;2022-08-19T08:18:28;30.50;53.80
1367;DHT22;16877;48.810;9.282;2022-08-19T08:20:55;30.50;53.70
1367;DHT22;16877;48.810;9.282;2022-08-19T08:23:24;30.50;53.70
1367;DHT22;16877;48.810;9.282;2022-08-19T08:25:52;30.50;53.60
1367;DHT22;16877;48.810;9.282;2022-08-19T08:28:20;30.50;53.80
1367;DHT22;16877;48.810;9.282;2022-08-19T08:30:48;30.50;53.80
1367;DHT22;16877;48.810;9.282;2022-08-19T08:33:17;30.50;54.50
1367;DHT22;16877;48.810;9.282;2022-08-19T08:35:44;30.50;53.90
1367;DHT22;16877;48.810;9.282;2022-08-19T08:38:12;30.60;54.00
1367;DHT22;16877;48.810;9.282;2022-08-19T08:40:44;30.60;54.00
1367;DHT22;16877;48.810;9.282;2022-08-19T08:43:20;30.70;54.10
1367;DHT22;16877;48.810;9.282;2022-08-19T08:45:53;30.70;54.10
1367;DHT22;16877;48.810;9.282;2022-08-19T08:48:38;30.80;54.10
1367;DHT22;16877;48.810;9.282;2022-08-19T08:51:10;30.80;54.00
1367;DHT22;16877;48.810;9.282;2022-08-19T08:53:38;30.90;53.90
1367;DHT22;16877;48.810;9.282;2022-08-19T08:56:09;31.00;53.90
1367;DHT22;16877;48.810;9.282;2022-08-19T08:58:46;31.00;53.90
1367;DHT22;16877;48.810;9.282;2022-08-19T09:01:14;31.10;53.90
1367;DHT22;16877;48.810;9.282;2022-08-19T09:03:42;31.10;53.90
1367;DHT22;16877;48.810;9.282;2022-08-19T09:06:14;31.10;53.80
1367;DHT22;16877;48.810;9.282;2022-08-19T09:08:49;31.10;53.70
1367;DHT22;16877;48.810;9.282;2022-08-19T09:11:34;31.10;53.80
1367;DHT22;16877;48.810;9.282;2022-08-19T09:14:10;31.00;53.70
1367;DHT22;16877;48.810;9.282;2022-08-19T09:16:39;31.10;53.80
1367;DHT22;16877;48.810;9.282;2022-08-19T09:19:07;31.00;54.30
1367;DHT22;16877;48.810;9.282;2022-08-19T09:21:36;31.00;53.90
1367;DHT22;16877;48.810;9.282;2022-08-19T09:24:04;31.00;54.10
1367;DHT22;16877;48.810;9.282;2022-08-19T09:26:33;31.00;54.10
1367;DHT22;16877;48.810;9.282;2022-08-19T09:29:00;31.00;54.10
1367;DHT22;16877;48.810;9.282;2022-08-19T09:31:30;31.00;54.10
1367;DHT22;16877;48.810;9.282;2022-08-19T09:33:58;31.00;54.20
1367;DHT22;16877;48.810;9.282;2022-08-19T09:36:27;30.90;54.10
1367;DHT22;16877;48.810;9.282;2022-08-19T09:38:55;31.00;54.30
1367;DHT22;16877;48.810;9.282;2022-08-19T09:41:23;30.90;54.10
1367;DHT22;16877;48.810;9.282;2022-08-19T09:43:54;31.00;54.20
1367;DHT22;16877;48.810;9.282;2022-08-19T09:46:23;30.90;54.10
1367;DHT22;16877;48.810;9.282;2022-08-19T09:48:50;30.90;54.20
1367;DHT22;16877;48.810;9.282;2022-08-19T09:51:20;30.90;54.30
1367;DHT22;16877;48.810;9.282;2022-08-19T09:53:49;30.90;54.50
1367;DHT22;16877;48.810;9.282;2022-08-19T09:56:18;30.90;54.30
1367;DHT22;16877;48.810;9.282;2022-08-19T09:58:45;30.90;54.40
1367;DHT22;16877;48.810;9.282;2022-08-19T10:01:18;30.90;54.30
1367;DHT22;16877;48.810;9.282;2022-08-19T10:03:48;30.90;54.30
1367;DHT22;16877;48.810;9.282;2022-08-19T10:06:16;31.00;54.30
1367;DHT22;16877;48.810;9.282;2022-08-19T10:08:43;31.00;54.20
1367;DHT22;16877;48.810;9.282;2022-08-19T10:11:10;31.00;54.20
1367;DHT22;16877;48.810;9.282;2022-08-19T10:13:39;31.00;54.20
1367;DHT22;16877;48.810;9.282;2022-08-19T10:16:09;31.00;54.20
1367;DHT22;16877;48.810;9.282;2022-08-19T10:18:38;31.00;54.20
1367;DHT22;16877;48.810;9.282;2022-08-19T10:21:07;31.00;54.20
1367;DHT22;16877;48.810;9.282;2022-08-19T10:23:35;30.90;54.20
1367;DHT22;16877;48.810;9.282;2022-08-19T10:26:03;30.90;54.30
1367;DHT22;16877;48.810;9.282;2022-08-19T10:28:31;30.90;54.40
1367;DHT22;16877;48.810;9.282;2022-08-19T10:30:58;31.00;54.40
1367;DHT22;16877;48.810;9.282;2022-08-19T10:33:29;31.00;54.40
1367;DHT22;16877;48.810;9.282;2022-08-19T10:36:01;31.00;54.40
1367;DHT22;16877;48.810;9.282;2022-08-19T10:38:27;31.00;54.40
1367;DHT22;16877;48.810;9.282;2022-08-19T10:40:55;31.00;54.50
1367;DHT22;16877;48.810;9.282;2022-08-19T10:43:22;31.00;54.40
1367;DHT22;16877;48.810;9.282;2022-08-19T10:45:52;31.00;54.30
1367;DHT22;16877;48.810;9.282;2022-08-19T10:48:20;31.00;54.30
1367;DHT22;16877;48.810;9.282;2022-08-19T10:50:46;31.00;54.30
1367;DHT22;16877;48.810;9.282;2022-08-19T10:53:32;31.00;54.30
1367;DHT22;16877;48.810;9.282;2022-08-19T10:55:59;31.00;54.50
1367;DHT22;16877;48.810;9.282;2022-08-19T10:58:43;31.00;54.40
1367;DHT22;16877;48.810;9.282;2022-08-19T11:01:10;31.00;54.50
1367;DHT22;16877;48.810;9.282;2022-08-19T11:03:36;31.00;54.50
1367;DHT22;16877;48.810;9.282;2022-08-19T11:06:05;31.00;54.50
1367;DHT22;16877;48.810;9.282;2022-08-19T11:08:34;31.00;54.50
1367;DHT22;16877;48.810;9.282;2022-08-19T11:11:03;31.00;54.50
1367;DHT22;16877;48.810;9.282;2022-08-19T11:13:32;31.00;54.50
1367;DHT22;16877;48.810;9.282;2022-08-19T11:16:01;31.00;54.40
1367;DHT22;16877;48.810;9.282;2022-08-19T11:18:28;31.00;54.50
1367;DHT22;16877;48.810;9.282;2022-08-19T11:21:05;31.10;54.50
1367;DHT22;16877;48.810;9.282;2022-08-19T11:23:33;31.10;54.70
1367;DHT22;16877;48.810;9.282;2022-08-19T11:26:00;31.10;54.90
1367;DHT22;16877;48.810;9.282;2022-08-19T11:28:27;31.10;55.00
1367;DHT22;16877;48.810;9.282;2022-08-19T11:30:54;31.20;55.00
1367;DHT22;16877;48.810;9.282;2022-08-19T11:33:20;31.20;54.90
1367;DHT22;16877;48.810;9.282;2022-08-19T11:35:47;31.30;55.00
1367;DHT22;16877;48.810;9.282;2022-08-19T11:38:14;31.30;55.00
1367;DHT22;16877;48.810;9.282;2022-08-19T11:40:42;31.30;55.00
1367;DHT22;16877;48.810;9.282;2022-08-19T11:43:09;31.40;55.00
1367;DHT22;16877;48.810;9.282;2022-08-19T11:45:36;31.30;55.20
1367;DHT22;16877;48.810;9.282;2022-08-19T11:48:03;31.30;55.10
1367;DHT22;16877;48.810;9.282;2022-08-19T11:50:29;31.30;55.20
1367;DHT22;16877;48.810;9.282;2022-08-19T11:52:56;31.30;55.20
1367;DHT22;16877;48.810;9.282;2022-08-19T11:55:23;31.30;55.20
1367;DHT22;16877;48.810;9.282;2022-08-19T11:57:51;31.30;55.30
1367;DHT22;16877;48.810;9.282;2022-08-19T12:00:18;31.30;55.30
1367;DHT22;16877;48.810;9.282;2022-08-19T12:02:45;31.30;55.40
1367;DHT22;16877;48.810;9.282;2022-08-19T12:05:12;31.30;55.40
1367;DHT22;16877;48.810;9.282;2022-08-19T12:07:39;31.30;56.00
1367;DHT22;16877;48.810;9.282;2022-08-19T12:10:09;31.30;55.80
1367;DHT22;16877;48.810;9.282;2022-08-19T12:12:36;31.30;55.80
1367;DHT22;16877;48.810;9.282;2022-08-19T12:15:10;31.20;55.90
1367;DHT22;16877;48.810;9.282;2022-08-19T12:17:37;31.20;56.00
1367;DHT22;16877;48.810;9.282;2022-08-19T12:20:06;31.30;55.90
1367;DHT22;16877;48.810;9.282;2022-08-19T12:22:34;31.20;55.80
1367;DHT22;16877;48.810;9.282;2022-08-19T12:25:01;31.20;55.90
1367;DHT22;16877;48.810;9.282;2022-08-19T12:27:28;31.20;55.80
1367;DHT22;16877;48.810;9.282;2022-08-19T12:29:54;31.20;55.70
1367;DHT22;16877;48.810;9.282;2022-08-19T12:32:23;31.20;55.70
1367;DHT22;16877;48.810;9.282;2022-08-19T12:34:50;31.20;55.70
1367;DHT22;16877;48.810;9.282;2022-08-19T12:37:16;31.20;55.60
1367;DHT22;16877;48.810;9.282;2022-08-19T12:39:43;31.30;55.60
1367;DHT22;16877;48.810;9.282;2022-08-19T12:42:10;31.20;55.60
1367;DHT22;16877;48.810;9.282;2022-08-19T12:44:39;31.20;55.60
1367;DHT22;16877;48.810;9.282;2022-08-19T12:47:06;31.30;55.50
1367;DHT22;16877;48.810;9.282;2022-08-19T12:49:35;31.30;55.50
1367;DHT22;16877;48.810;9.282;2022-08-19T12:52:03;31.30;55.50
1367;DHT22;16877;48.810;9.282;2022-08-19T12:54:30;31.30;55.40
1367;DHT22;16877;48.810;9.282;2022-08-19T12:56:57;31.40;55.30
1367;DHT22;16877;48.810;9.282;2022-08-19T12:59:25;31.30;55.20
1367;DHT22;16877;48.810;9.282;2022-08-19T13:01:52;31.30;55.20
1367;DHT22;16877;48.810;9.282;2022-08-19T13:04:18;31.30;55.20
1367;DHT22;16877;48.810;9.282;2022-08-19T13:06:46;31.30;55.20
1367;DHT22;16877;48.810;9.282;2022-08-19T13:09:13;31.30;55.20
1367;DHT22;16877;48.810;9.282;2022-08-19T13:11:40;31.30;55.20
1367;DHT22;16877;48.810;9.282;2022-08-19T13:14:06;31.30;55.30
1367;DHT22;16877;48.810;9.282;2022-08-19T13:16:33;31.30;55.40
1367;DHT22;16877;48.810;9.282;2022-08-19T13:19:00;31.30;55.60
1367;DHT22;16877;48.810;9.282;2022-08-19T13:21:28;31.30;55.60
1367;DHT22;16877;48.810;9.282;2022-08-19T13:23:57;31.30;55.70
1367;DHT22;16877;48.810;9.282;2022-08-19T13:26:24;31.30;55.80
1367;DHT22;16877;48.810;9.282;2022-08-19T13:28:51;31.30;56.00
1367;DHT22;16877;48.810;9.282;2022-08-19T13:31:36;31.30;55.90
1367;DHT22;16877;48.810;9.282;2022-08-19T13:34:26;31.30;56.10
1367;DHT22;16877;48.810;9.282;2022-08-19T13:36:53;31.30;56.10
1367;DHT22;16877;48.810;9.282;2022-08-19T13:39:21;31.30;56.10
1367;DHT22;16877;48.810;9.282;2022-08-19T13:41:49;31.20;56.10
1367;DHT22;16877;48.810;9.282;2022-08-19T13:44:16;31.20;56.20
1367;DHT22;16877;48.810;9.282;2022-08-19T13:46:44;31.20;56.30
1367;DHT22;16877;48.810;9.282;2022-08-19T13:49:12;31.20;56.40
1367;DHT22;16877;48.810;9.282;2022-08-19T13:51:41;31.20;56.40
1367;DHT22;16877;48.810;9.282;2022-08-19T13:54:08;31.20;56.40
1367;DHT22;16877;48.810;9.282;2022-08-19T13:56:40;31.10;56.30
1367;DHT22;16877;48.810;9.282;2022-08-19T13:59:07;31.10;56.30
1367;DHT22;16877;48.810;9.282;2022-08-19T14:01:33;31.10;56.30
1367;DHT22;16877;48.810;9.282;2022-08-19T14:04:00;31.10;57.00
1367;DHT22;16877;48.810;9.282;2022-08-19T14:06:27;31.10;56.40
1367;DHT22;16877;48.810;9.282;2022-08-19T14:08:54;31.00;56.40
1367;DHT22;16877;48.810;9.282;2022-08-19T14:11:20;31.00;56.40
1367;DHT22;16877;48.810;9.282;2022-08-19T14:13:49;31.00;56.40
1367;DHT22;16877;48.810;9.282;2022-08-19T14:16:16;31.00;56.50
1367;DHT22;16877;48.810;9.282;2022-08-19T14:18:43;31.00;56.50
1367;DHT22;16877;48.810;9.282;2022-08-19T14:21:14;30.90;56.50
1367;DHT22;16877;48.810;9.282;2022-08-19T14:23:43;30.90;56.60
1367;DHT22;16877;48.810;9.282;2022-08-19T14:26:13;30.80;56.60
1367;DHT22;16877;48.810;9.282;2022-08-19T14:28:41;30.80;56.70
1367;DHT22;16877;48.810;9.282;2022-08-19T14:31:09;30.70;56.70
1367;DHT22;16877;48.810;9.282;2022-08-19T14:33:36;30.80;57.10
1367;DHT22;16877;48.810;9.282;2022-08-19T14:36:03;30.80;57.90
1367;DHT22;16877;48.810;9.282;2022-08-19T14:38:30;30.80;58.20
1367;DHT22;16877;48.810;9.282;2022-08-19T14:41:07;30.80;58.20
1367;DHT22;16877;48.810;9.282;2022-08-19T14:43:34;30.80;58.20
1367;DHT22;16877;48.810;9.282;2022-08-19T14:46:01;30.80;58.60
1367;DHT22;16877;48.810;9.282;2022-08-19T14:48:29;30.70;59.50
1367;DHT22;16877;48.810;9.282;2022-08-19T14:50:56;30.70;60.50
1367;DHT22;16877;48.810;9.282;2022-08-19T14:53:22;30.70;60.70
1367;DHT22;16877;48.810;9.282;2022-08-19T14:55:49;30.70;60.00
1367;DHT22;16877;48.810;9.282;2022-08-19T14:58:16;30.70;59.80
1367;DHT22;16877;48.810;9.282;2022-08-19T15:00:43;30.80;59.80
1367;DHT22;16877;48.810;9.282;2022-08-19T15:03:09;30.70;60.70
1367;DHT22;16877;48.810;9.282;2022-08-19T15:05:38;30.80;60.40
1367;DHT22;16877;48.810;9.282;2022-08-19T15:08:07;30.80;60.30
1367;DHT22;16877;48.810;9.282;2022-08-19T15:10:33;30.80;59.90
1367;DHT22;16877;48.810;9.282;2022-08-19T15:13:00;30.90;59.80
1367;DHT22;16877;48.810;9.282;2022-08-19T15:15:27;30.90;59.60
1367;DHT22;16877;48.810;9.282;2022-08-19T15:17:53;31.00;59.40
1367;DHT22;16877;48.810;9.282;2022-08-19T15:20:22;31.10;59.20
1367;DHT22;16877;48.810;9.282;2022-08-19T15:22:50;31.10;58.90
1367;DHT22;16877;48.810;9.282;2022-08-19T15:25:18;31.10;58.80
1367;DHT22;16877;48.810;9.282;2022-08-19T15:27:45;31.20;58.50
1367;DHT22;16877;48.810;9.282;2022-08-19T15:30:19;31.20;58.40
1367;DHT22;16877;48.810;9.282;2022-08-19T15:32:46;31.30;58.30
1367;DHT22;16877;48.810;9.282;2022-08-19T15:35:13;31.30;58.10
1367;DHT22;16877;48.810;9.282;2022-08-19T15:37:39;31.30;57.90
1367;DHT22;16877;48.810;9.282;2022-08-19T15:40:08;31.30;57.90
1367;DHT22;16877;48.810;9.282;2022-08-19T15:42:37;31.30;57.80
1367;DHT22;16877;48.810;9.282;2022-08-19T15:45:07;31.40;57.80
1367;DHT22;16877;48.810;9.282;2022-08-19T15:47:35;31.40;57.70
1367;DHT22;16877;48.810;9.282;2022-08-19T15:50:05;31.40;57.70
1367;DHT22;16877;48.810;9.282;2022-08-19T15:52:32;31.40;57.70